sensor_id;sensor_type;location;lat;lon;timestamp;P1;durP1;ratioP1;P2;durP2;ratioP2
58366;SDS011;57745;42.524;12.052;2023-08-17T00:02:13;5.65;;;2.67;;
58366;SDS011;57745;42.524;12.052;2023-08-17T00:04:39;4.88;;;3.05;;
58366;SDS011;57745;42.524;12.052;2023-08-17T00:07:05;4.75;;;2.58;;
58366;SDS011;57745;42.524;12.052;2023-08-17T00:09:30;4.90;;;2.63;;
58366;SDS011;57745;42.524;12.052;2023-08-17T00:11:56;6.93;;;2.80;;
58366;SDS011;57745;42.524;12.052;2023-08-17T00:14:21;5.07;;;2.75;;
58366;SDS011;57745;42.524;12.052;2023-08-17T00:16:49;3.83;;;2.47;;
58366;SDS011;57745;42.524;12.052;2023-08-17T00:19:15;4.47;;;2.83;;
58366;SDS011;57745;42.524;12.052;2023-08-17T00:21:40;3.45;;;2.63;;
58366;SDS011;57745;42.524;12.052;2023-08-17T00:24:06;5.25;;;2.60;;
58366;SDS011;57745;42.524;12.052;2023-08-17T00:26:32;6.20;;;2.80;;
58366;SDS011;57745;42.524;12.052;2023-08-17T00:28:57;5.47;;;2.50;;
58366;SDS011;57745;42.524;12.052;2023-08-17T00:31:23;3.53;;;2.60;;
58366;SDS011;57745;42.524;12.052;2023-08-17T00:33:48;2.90;;;2.15;;
58366;SDS011;57745;42.524;12.052;2023-08-17T00:36:14;5.72;;;2.95;;
58366;SDS011;57745;42.524;12.052;2023-08-17T00:38:40;3.53;;;2.65;;
58366;SDS011;57745;42.524;12.052;2023-08-17T00:41:05;4.45;;;3.10;;
58366;SDS011;57745;42.524;12.052;2023-08-17T00:43:31;3.10;;;2.83;;
58366;SDS011;57745;42.524;12.052;2023-08-17T00:45:56;5.53;;;2.88;;
58366;SDS011;57745;42.524;12.052;2023-08-17T00:48:22;3.72;;;2.75;;
58366;SDS011;57745;42.524;12.052;2023-08-17T00:50:48;5.15;;;2.45;;
58366;SDS011;57745;42.524;12.052;2023-08-17T00:53:15;3.58;;;2.65;;
58366;SDS011;57745;42.524;12.052;2023-08-17T00:55:41;3.80;;;3.00;;
58366;SDS011;57745;42.524;12.052;2023-08-17T00:58:07;3.15;;;2.85;;
58366;SDS011;57745;42.524;12.052;2023-08-17T01:00:33;4.25;;;3.35;;
58366;SDS011;57745;42.524;12.052;2023-08-17T01:02:59;6.90;;;3.97;;
58366;SDS011;57745;42.524;12.052;2023-08-17T01:05:25;8.57;;;3.40;;
58366;SDS011;57745;42.524;12.052;2023-08-17T01:07:50;8.48;;;3.00;;
58366;SDS011;57745;42.524;12.052;2023-08-17T01:10:16;4.82;;;3.05;;
58366;SDS011;57745;42.524;12.052;2023-08-17T01:13:05;5.78;;;2.88;;
58366;SDS011;57745;42.524;12.052;2023-08-17T01:15:31;6.10;;;2.97;;
58366;SDS011;57745;42.524;12.052;2023-08-17T01:17:59;6.05;;;3.10;;
58366;SDS011;57745;42.524;12.052;2023-08-17T01:20:50;3.35;;;2.97;;
58366;SDS011;57745;42.524;12.052;2023-08-17T01:23:18;4.65;;;3.22;;
58366;SDS011;57745;42.524;12.052;2023-08-17T01:25:43;4.72;;;3.05;;
58366;SDS011;57745;42.524;12.052;2023-08-17T01:28:09;3.70;;;3.28;;
58366;SDS011;57745;42.524;12.052;2023-08-17T01:30:55;3.83;;;3.17;;
58366;SDS011;57745;42.524;12.052;2023-08-17T01:36:37;3.83;;;3.20;;
58366;SDS011;57745;42.524;12.052;2023-08-17T01:39:09;5.80;;;3.88;;
58366;SDS011;57745;42.524;12.052;2023-08-17T01:41:36;4.20;;;3.38;;
58366;SDS011;57745;42.524;12.052;2023-08-17T01:44:03;4.88;;;3.63;;
58366;SDS011;57745;42.524;12.052;2023-08-17T01:46:30;5.53;;;3.47;;
58366;SDS011;57745;42.524;12.052;2023-08-17T01:48:59;4.45;;;2.97;;
58366;SDS011;57745;42.524;12.052;2023-08-17T01:51:25;4.63;;;4.07;;
58366;SDS011;57745;42.524;12.052;2023-08-17T01:53:51;4.85;;;3.60;;
58366;SDS011;57745;42.524;12.052;2023-08-17T01:56:16;4.03;;;3.25;;
58366;SDS011;57745;42.524;12.052;2023-08-17T01:58:43;4.75;;;3.40;;
58366;SDS011;57745;42.524;12.052;2023-08-17T02:01:08;3.92;;;3.00;;
58366;SDS011;57745;42.524;12.052;2023-08-17T02:03:34;3.50;;;3.20;;
58366;SDS011;57745;42.524;12.052;2023-08-17T02:06:00;4.25;;;3.10;;
58366;SDS011;57745;42.524;12.052;2023-08-17T02:08:26;4.70;;;3.50;;
58366;SDS011;57745;42.524;12.052;2023-08-17T02:10:52;8.52;;;3.58;;
58366;SDS011;57745;42.524;12.052;2023-08-17T02:13:17;5.68;;;3.42;;
58366;SDS011;57745;42.524;12.052;2023-08-17T02:15:43;4.40;;;3.20;;
58366;SDS011;57745;42.524;12.052;2023-08-17T02:18:09;6.32;;;3.92;;
58366;SDS011;57745;42.524;12.052;2023-08-17T02:20:34;4.35;;;3.35;;
58366;SDS011;57745;42.524;12.052;2023-08-17T02:23:00;4.20;;;3.80;;
58366;SDS011;57745;42.524;12.052;2023-08-17T02:25:26;6.35;;;3.63;;
58366;SDS011;57745;42.524;12.052;2023-08-17T02:27:52;5.28;;;3.42;;
58366;SDS011;57745;42.524;12.052;2023-08-17T02:30:18;4.30;;;3.30;;
58366;SDS011;57745;42.524;12.052;2023-08-17T02:32:44;4.53;;;3.45;;
58366;SDS011;57745;42.524;12.052;2023-08-17T02:35:09;6.40;;;3.55;;
58366;SDS011;57745;42.524;12.052;2023-08-17T02:37:35;4.38;;;3.22;;
58366;SDS011;57745;42.524;12.052;2023-08-17T02:40:00;3.80;;;3.50;;
58366;SDS011;57745;42.524;12.052;2023-08-17T02:42:26;6.63;;;3.80;;
58366;SDS011;57745;42.524;12.052;2023-08-17T02:44:51;5.78;;;3.40;;
58366;SDS011;57745;42.524;12.052;2023-08-17T02:47:17;5.88;;;3.60;;
58366;SDS011;57745;42.524;12.052;2023-08-17T02:49:42;6.10;;;3.80;;
58366;SDS011;57745;42.524;12.052;2023-08-17T02:52:07;6.13;;;3.70;;
58366;SDS011;57745;42.524;12.052;2023-08-17T02:54:33;4.32;;;3.60;;
58366;SDS011;57745;42.524;12.052;2023-08-17T02:56:59;5.10;;;4.15;;
58366;SDS011;57745;42.524;12.052;2023-08-17T02:59:24;7.00;;;4.03;;
58366;SDS011;57745;42.524;12.052;2023-08-17T03:01:50;5.85;;;3.40;;
58366;SDS011;57745;42.524;12.052;2023-08-17T03:04:15;8.55;;;3.65;;
58366;SDS011;57745;42.524;12.052;2023-08-17T03:06:41;4.63;;;3.30;;
58366;SDS011;57745;42.524;12.052;2023-08-17T03:09:06;4.53;;;3.53;;
58366;SDS011;57745;42.524;12.052;2023-08-17T03:11:32;4.43;;;3.60;;
58366;SDS011;57745;42.524;12.052;2023-08-17T03:13:57;9.32;;;3.35;;
58366;SDS011;57745;42.524;12.052;2023-08-17T03:16:26;5.25;;;3.45;;
58366;SDS011;57745;42.524;12.052;2023-08-17T03:18:52;7.25;;;3.30;;
58366;SDS011;57745;42.524;12.052;2023-08-17T03:21:18;6.05;;;3.65;;
58366;SDS011;57745;42.524;12.052;2023-08-17T03:23:44;5.25;;;3.72;;
58366;SDS011;57745;42.524;12.052;2023-08-17T03:26:10;4.88;;;3.75;;
58366;SDS011;57745;42.524;12.052;2023-08-17T03:28:35;4.78;;;3.63;;
58366;SDS011;57745;42.524;12.052;2023-08-17T03:31:01;5.15;;;3.92;;
58366;SDS011;57745;42.524;12.052;2023-08-17T03:33:28;5.45;;;3.38;;
58366;SDS011;57745;42.524;12.052;2023-08-17T03:35:54;4.70;;;3.42;;
58366;SDS011;57745;42.524;12.052;2023-08-17T03:38:19;3.88;;;3.38;;
58366;SDS011;57745;42.524;12.052;2023-08-17T03:40:46;4.88;;;3.17;;
58366;SDS011;57745;42.524;12.052;2023-08-17T03:43:12;4.93;;;3.47;;
58366;SDS011;57745;42.524;12.052;2023-08-17T03:45:38;4.68;;;3.38;;
58366;SDS011;57745;42.524;12.052;2023-08-17T03:48:03;4.68;;;3.50;;
58366;SDS011;57745;42.524;12.052;2023-08-17T03:50:31;3.85;;;3.15;;
58366;SDS011;57745;42.524;12.052;2023-08-17T03:52:56;4.85;;;3.15;;
58366;SDS011;57745;42.524;12.052;2023-08-17T03:55:22;5.38;;;3.53;;
58366;SDS011;57745;42.524;12.052;2023-08-17T03:57:47;4.63;;;3.38;;
58366;SDS011;57745;42.524;12.052;2023-08-17T04:00:13;7.40;;;3.67;;
58366;SDS011;57745;42.524;12.052;2023-08-17T04:02:38;5.72;;;3.53;;
58366;SDS011;57745;42.524;12.052;2023-08-17T04:05:04;7.13;;;3.88;;
58366;SDS011;57745;42.524;12.052;2023-08-17T04:07:30;4.50;;;3.65;;
58366;SDS011;57745;42.524;12.052;2023-08-17T04:09:55;5.03;;;3.60;;
58366;SDS011;57745;42.524;12.052;2023-08-17T04:12:21;6.13;;;3.80;;
58366;SDS011;57745;42.524;12.052;2023-08-17T04:14:46;6.65;;;3.67;;
58366;SDS011;57745;42.524;12.052;2023-08-17T04:17:12;6.47;;;3.83;;
58366;SDS011;57745;42.524;12.052;2023-08-17T04:19:37;6.82;;;3.65;;
58366;SDS011;57745;42.524;12.052;2023-08-17T04:22:02;5.95;;;3.85;;
58366;SDS011;57745;42.524;12.052;2023-08-17T04:24:28;4.65;;;3.55;;
58366;SDS011;57745;42.524;12.052;2023-08-17T04:26:54;6.32;;;3.65;;
58366;SDS011;57745;42.524;12.052;2023-08-17T04:29:20;4.13;;;3.35;;
58366;SDS011;57745;42.524;12.052;2023-08-17T04:31:45;5.05;;;3.20;;
58366;SDS011;57745;42.524;12.052;2023-08-17T04:34:11;6.55;;;3.38;;
58366;SDS011;57745;42.524;12.052;2023-08-17T04:36:36;6.45;;;3.58;;
58366;SDS011;57745;42.524;12.052;2023-08-17T04:39:02;4.47;;;3.55;;
58366;SDS011;57745;42.524;12.052;2023-08-17T04:41:29;3.70;;;3.30;;
58366;SDS011;57745;42.524;12.052;2023-08-17T04:43:55;5.50;;;3.28;;
58366;SDS011;57745;42.524;12.052;2023-08-17T04:46:20;5.03;;;3.25;;
58366;SDS011;57745;42.524;12.052;2023-08-17T04:48:46;4.28;;;3.13;;
58366;SDS011;57745;42.524;12.052;2023-08-17T04:51:11;6.07;;;3.40;;
58366;SDS011;57745;42.524;12.052;2023-08-17T04:53:37;5.25;;;3.53;;
58366;SDS011;57745;42.524;12.052;2023-08-17T04:56:03;4.85;;;3.42;;
58366;SDS011;57745;42.524;12.052;2023-08-17T04:58:29;5.18;;;3.53;;
58366;SDS011;57745;42.524;12.052;2023-08-17T05:00:54;3.70;;;2.90;;
58366;SDS011;57745;42.524;12.052;2023-08-17T05:03:20;5.40;;;3.22;;
58366;SDS011;57745;42.524;12.052;2023-08-17T05:05:45;9.88;;;3.45;;
58366;SDS011;57745;42.524;12.052;2023-08-17T05:08:11;4.40;;;3.45;;
58366;SDS011;57745;42.524;12.052;2023-08-17T05:10:36;7.30;;;3.45;;
58366;SDS011;57745;42.524;12.052;2023-08-17T05:13:02;7.32;;;3.55;;
58366;SDS011;57745;42.524;12.052;2023-08-17T05:15:27;5.95;;;3.97;;
58366;SDS011;57745;42.524;12.052;2023-08-17T05:17:53;8.50;;;3.67;;
58366;SDS011;57745;42.524;12.052;2023-08-17T05:20:18;4.70;;;3.67;;
58366;SDS011;57745;42.524;12.052;2023-08-17T05:22:45;4.35;;;3.35;;
58366;SDS011;57745;42.524;12.052;2023-08-17T05:25:11;4.70;;;3.50;;
58366;SDS011;57745;42.524;12.052;2023-08-17T05:27:37;6.15;;;3.58;;
58366;SDS011;57745;42.524;12.052;2023-08-17T05:30:02;4.97;;;3.70;;
58366;SDS011;57745;42.524;12.052;2023-08-17T05:32:28;6.60;;;3.72;;
58366;SDS011;57745;42.524;12.052;2023-08-17T05:34:53;5.75;;;3.83;;
58366;SDS011;57745;42.524;12.052;2023-08-17T05:37:19;6.03;;;3.70;;
58366;SDS011;57745;42.524;12.052;2023-08-17T05:39:44;6.50;;;4.60;;
58366;SDS011;57745;42.524;12.052;2023-08-17T05:42:10;7.43;;;3.92;;
58366;SDS011;57745;42.524;12.052;2023-08-17T05:44:35;5.57;;;4.25;;
58366;SDS011;57745;42.524;12.052;2023-08-17T05:47:01;5.82;;;3.97;;
58366;SDS011;57745;42.524;12.052;2023-08-17T05:49:26;8.05;;;4.35;;
58366;SDS011;57745;42.524;12.052;2023-08-17T05:51:52;4.93;;;3.88;;
58366;SDS011;57745;42.524;12.052;2023-08-17T05:54:17;6.68;;;4.10;;
58366;SDS011;57745;42.524;12.052;2023-08-17T05:56:43;7.57;;;3.38;;
58366;SDS011;57745;42.524;12.052;2023-08-17T05:59:11;4.93;;;4.00;;
58366;SDS011;57745;42.524;12.052;2023-08-17T06:01:38;6.35;;;3.47;;
58366;SDS011;57745;42.524;12.052;2023-08-17T06:04:04;8.13;;;3.97;;
58366;SDS011;57745;42.524;12.052;2023-08-17T06:06:30;7.35;;;3.47;;
58366;SDS011;57745;42.524;12.052;2023-08-17T06:08:55;4.70;;;3.40;;
58366;SDS011;57745;42.524;12.052;2023-08-17T06:11:21;8.45;;;4.05;;
58366;SDS011;57745;42.524;12.052;2023-08-17T06:13:46;6.57;;;3.92;;
58366;SDS011;57745;42.524;12.052;2023-08-17T06:16:12;9.90;;;3.72;;
58366;SDS011;57745;42.524;12.052;2023-08-17T06:18:37;9.45;;;3.70;;
58366;SDS011;57745;42.524;12.052;2023-08-17T06:21:04;5.55;;;3.40;;
58366;SDS011;57745;42.524;12.052;2023-08-17T06:23:29;6.75;;;3.42;;
58366;SDS011;57745;42.524;12.052;2023-08-17T06:25:58;4.05;;;3.22;;
58366;SDS011;57745;42.524;12.052;2023-08-17T06:28:24;5.00;;;4.35;;
58366;SDS011;57745;42.524;12.052;2023-08-17T06:30:54;5.03;;;3.78;;
58366;SDS011;57745;42.524;12.052;2023-08-17T06:33:20;5.70;;;3.30;;
58366;SDS011;57745;42.524;12.052;2023-08-17T06:35:47;5.03;;;3.58;;
58366;SDS011;57745;42.524;12.052;2023-08-17T06:38:13;7.85;;;3.83;;
58366;SDS011;57745;42.524;12.052;2023-08-17T06:40:38;6.68;;;3.50;;
58366;SDS011;57745;42.524;12.052;2023-08-17T06:43:04;6.25;;;3.42;;
58366;SDS011;57745;42.524;12.052;2023-08-17T06:45:31;5.00;;;4.00;;
58366;SDS011;57745;42.524;12.052;2023-08-17T06:47:57;7.32;;;3.83;;
58366;SDS011;57745;42.524;12.052;2023-08-17T06:50:22;4.90;;;3.92;;
58366;SDS011;57745;42.524;12.052;2023-08-17T06:52:48;4.53;;;3.83;;
58366;SDS011;57745;42.524;12.052;2023-08-17T06:55:13;6.63;;;4.00;;
58366;SDS011;57745;42.524;12.052;2023-08-17T06:57:40;4.60;;;3.90;;
58366;SDS011;57745;42.524;12.052;2023-08-17T07:00:06;8.55;;;4.45;;
58366;SDS011;57745;42.524;12.052;2023-08-17T07:02:32;6.00;;;4.13;;
58366;SDS011;57745;42.524;12.052;2023-08-17T07:04:59;6.18;;;3.90;;
58366;SDS011;57745;42.524;12.052;2023-08-17T07:07:25;8.23;;;4.35;;
58366;SDS011;57745;42.524;12.052;2023-08-17T07:09:50;5.38;;;3.90;;
58366;SDS011;57745;42.524;12.052;2023-08-17T07:12:16;6.15;;;4.55;;
58366;SDS011;57745;42.524;12.052;2023-08-17T07:14:41;6.72;;;4.57;;
58366;SDS011;57745;42.524;12.052;2023-08-17T07:17:07;5.82;;;4.40;;
58366;SDS011;57745;42.524;12.052;2023-08-17T07:19:32;5.75;;;4.60;;
58366;SDS011;57745;42.524;12.052;2023-08-17T07:21:57;6.15;;;4.68;;
58366;SDS011;57745;42.524;12.052;2023-08-17T07:24:23;5.18;;;4.10;;
58366;SDS011;57745;42.524;12.052;2023-08-17T07:26:48;9.20;;;4.85;;
58366;SDS011;57745;42.524;12.052;2023-08-17T07:29:14;6.00;;;4.60;;
58366;SDS011;57745;42.524;12.052;2023-08-17T07:31:40;6.38;;;4.65;;
58366;SDS011;57745;42.524;12.052;2023-08-17T07:34:05;8.13;;;4.45;;
58366;SDS011;57745;42.524;12.052;2023-08-17T07:36:31;6.70;;;4.88;;
58366;SDS011;57745;42.524;12.052;2023-08-17T07:38:58;6.57;;;4.68;;
58366;SDS011;57745;42.524;12.052;2023-08-17T07:41:24;7.43;;;4.70;;
58366;SDS011;57745;42.524;12.052;2023-08-17T07:43:50;4.95;;;4.05;;
58366;SDS011;57745;42.524;12.052;2023-08-17T07:46:15;4.90;;;4.47;;
58366;SDS011;57745;42.524;12.052;2023-08-17T07:48:40;5.20;;;4.70;;
58366;SDS011;57745;42.524;12.052;2023-08-17T07:51:06;7.50;;;4.75;;
58366;SDS011;57745;42.524;12.052;2023-08-17T07:53:32;5.25;;;4.75;;
58366;SDS011;57745;42.524;12.052;2023-08-17T07:55:57;5.63;;;4.30;;
58366;SDS011;57745;42.524;12.052;2023-08-17T07:58:23;5.28;;;4.38;;
58366;SDS011;57745;42.524;12.052;2023-08-17T08:01:00;6.68;;;4.80;;
58366;SDS011;57745;42.524;12.052;2023-08-17T08:03:26;5.03;;;4.45;;
58366;SDS011;57745;42.524;12.052;2023-08-17T08:05:52;7.25;;;4.70;;
58366;SDS011;57745;42.524;12.052;2023-08-17T08:08:17;5.95;;;5.32;;
58366;SDS011;57745;42.524;12.052;2023-08-17T08:10:45;7.07;;;5.28;;
58366;SDS011;57745;42.524;12.052;2023-08-17T08:13:10;6.05;;;5.22;;
58366;SDS011;57745;42.524;12.052;2023-08-17T08:15:36;5.50;;;4.80;;
58366;SDS011;57745;42.524;12.052;2023-08-17T08:18:01;9.00;;;5.22;;
58366;SDS011;57745;42.524;12.052;2023-08-17T08:20:27;6.47;;;5.40;;
58366;SDS011;57745;42.524;12.052;2023-08-17T08:22:52;5.97;;;4.30;;
58366;SDS011;57745;42.524;12.052;2023-08-17T08:25:18;5.50;;;4.55;;
58366;SDS011;57745;42.524;12.052;2023-08-17T08:27:43;7.53;;;4.80;;
58366;SDS011;57745;42.524;12.052;2023-08-17T08:30:09;6.00;;;4.63;;
58366;SDS011;57745;42.524;12.052;2023-08-17T08:32:34;5.53;;;5.03;;
58366;SDS011;57745;42.524;12.052;2023-08-17T08:35:00;5.57;;;4.68;;
58366;SDS011;57745;42.524;12.052;2023-08-17T08:37:25;7.13;;;5.00;;
58366;SDS011;57745;42.524;12.052;2023-08-17T08:39:51;6.13;;;5.28;;
58366;SDS011;57745;42.524;12.052;2023-08-17T08:42:18;6.25;;;5.45;;
58366;SDS011;57745;42.524;12.052;2023-08-17T08:44:45;5.75;;;5.10;;
58366;SDS011;57745;42.524;12.052;2023-08-17T08:47:11;6.78;;;4.80;;
58366;SDS011;57745;42.524;12.052;2023-08-17T08:49:43;8.30;;;5.72;;
58366;SDS011;57745;42.524;12.052;2023-08-17T08:52:23;6.70;;;5.57;;
58366;SDS011;57745;42.524;12.052;2023-08-17T08:54:57;6.45;;;5.85;;
58366;SDS011;57745;42.524;12.052;2023-08-17T08:57:24;7.90;;;6.10;;
58366;SDS011;57745;42.524;12.052;2023-08-17T08:59:53;6.65;;;5.93;;
58366;SDS011;57745;42.524;12.052;2023-08-17T09:02:19;6.97;;;6.15;;
58366;SDS011;57745;42.524;12.052;2023-08-17T09:04:44;6.30;;;5.68;;
58366;SDS011;57745;42.524;12.052;2023-08-17T09:07:11;6.32;;;5.80;;
58366;SDS011;57745;42.524;12.052;2023-08-17T09:09:38;7.60;;;6.30;;
58366;SDS011;57745;42.524;12.052;2023-08-17T09:12:06;6.93;;;6.10;;
58366;SDS011;57745;42.524;12.052;2023-08-17T09:14:33;7.75;;;6.32;;
58366;SDS011;57745;42.524;12.052;2023-08-17T09:16:58;7.15;;;5.95;;
58366;SDS011;57745;42.524;12.052;2023-08-17T09:19:24;6.85;;;6.25;;
58366;SDS011;57745;42.524;12.052;2023-08-17T09:21:49;6.75;;;6.20;;
58366;SDS011;57745;42.524;12.052;2023-08-17T09:24:15;8.20;;;6.72;;
58366;SDS011;57745;42.524;12.052;2023-08-17T09:26:40;7.20;;;5.72;;
58366;SDS011;57745;42.524;12.052;2023-08-17T09:29:16;6.45;;;5.88;;
58366;SDS011;57745;42.524;12.052;2023-08-17T09:31:45;7.43;;;6.07;;
58366;SDS011;57745;42.524;12.052;2023-08-17T09:34:16;6.28;;;5.68;;
58366;SDS011;57745;42.524;12.052;2023-08-17T09:36:47;7.20;;;6.50;;
58366;SDS011;57745;42.524;12.052;2023-08-17T09:39:12;6.32;;;5.78;;
58366;SDS011;57745;42.524;12.052;2023-08-17T09:41:41;7.10;;;6.40;;
58366;SDS011;57745;42.524;12.052;2023-08-17T09:44:08;6.55;;;5.82;;
58366;SDS011;57745;42.524;12.052;2023-08-17T09:46:34;9.73;;;6.35;;
58366;SDS011;57745;42.524;12.052;2023-08-17T09:49:02;7.00;;;6.35;;
58366;SDS011;57745;42.524;12.052;2023-08-17T09:51:29;8.60;;;6.20;;
58366;SDS011;57745;42.524;12.052;2023-08-17T09:53:57;6.93;;;6.13;;
58366;SDS011;57745;42.524;12.052;2023-08-17T09:56:23;7.55;;;6.80;;
58366;SDS011;57745;42.524;12.052;2023-08-17T09:58:49;7.30;;;6.15;;
58366;SDS011;57745;42.524;12.052;2023-08-17T10:01:15;7.13;;;6.20;;
58366;SDS011;57745;42.524;12.052;2023-08-17T10:03:43;7.80;;;6.43;;
58366;SDS011;57745;42.524;12.052;2023-08-17T10:06:12;6.88;;;6.18;;
58366;SDS011;57745;42.524;12.052;2023-08-17T10:08:42;6.90;;;6.30;;
58366;SDS011;57745;42.524;12.052;2023-08-17T10:11:10;7.13;;;6.53;;
58366;SDS011;57745;42.524;12.052;2023-08-17T10:13:48;8.43;;;6.45;;
58366;SDS011;57745;42.524;12.052;2023-08-17T10:16:24;10.60;;;6.55;;
58366;SDS011;57745;42.524;12.052;2023-08-17T10:21:40;6.70;;;6.07;;
58366;SDS011;57745;42.524;12.052;2023-08-17T10:24:11;7.93;;;6.57;;
58366;SDS011;57745;42.524;12.052;2023-08-17T10:26:38;8.75;;;7.20;;
58366;SDS011;57745;42.524;12.052;2023-08-17T10:29:04;7.05;;;5.85;;
58366;SDS011;57745;42.524;12.052;2023-08-17T10:31:34;9.07;;;6.05;;
58366;SDS011;57745;42.524;12.052;2023-08-17T10:34:00;8.48;;;6.15;;
58366;SDS011;57745;42.524;12.052;2023-08-17T10:36:27;6.47;;;5.68;;
58366;SDS011;57745;42.524;12.052;2023-08-17T10:41:51;6.60;;;6.00;;
58366;SDS011;57745;42.524;12.052;2023-08-17T10:44:18;8.63;;;6.13;;
58366;SDS011;57745;42.524;12.052;2023-08-17T10:47:21;6.50;;;6.00;;
58366;SDS011;57745;42.524;12.052;2023-08-17T10:50:36;6.90;;;6.18;;
58366;SDS011;57745;42.524;12.052;2023-08-17T10:52:49;7.45;;;6.63;;
58366;SDS011;57745;42.524;12.052;2023-08-17T10:55:20;8.77;;;6.97;;
58366;SDS011;57745;42.524;12.052;2023-08-17T10:58:04;7.13;;;6.50;;
58366;SDS011;57745;42.524;12.052;2023-08-17T11:00:34;10.05;;;6.00;;
58366;SDS011;57745;42.524;12.052;2023-08-17T11:03:05;7.55;;;6.80;;
58366;SDS011;57745;42.524;12.052;2023-08-17T11:08:19;8.57;;;7.28;;
58366;SDS011;57745;42.524;12.052;2023-08-17T11:13:24;8.75;;;6.47;;
58366;SDS011;57745;42.524;12.052;2023-08-17T11:15:52;10.85;;;6.38;;
58366;SDS011;57745;42.524;12.052;2023-08-17T11:18:17;7.28;;;6.57;;
58366;SDS011;57745;42.524;12.052;2023-08-17T11:20:43;8.65;;;6.78;;
58366;SDS011;57745;42.524;12.052;2023-08-17T11:23:09;8.20;;;7.30;;
58366;SDS011;57745;42.524;12.052;2023-08-17T11:25:35;8.27;;;6.35;;
58366;SDS011;57745;42.524;12.052;2023-08-17T11:28:01;7.10;;;6.50;;
58366;SDS011;57745;42.524;12.052;2023-08-17T11:30:28;6.45;;;5.85;;
58366;SDS011;57745;42.524;12.052;2023-08-17T11:32:54;6.70;;;6.20;;
58366;SDS011;57745;42.524;12.052;2023-08-17T11:35:21;6.63;;;5.90;;
58366;SDS011;57745;42.524;12.052;2023-08-17T11:37:48;7.72;;;6.43;;
58366;SDS011;57745;42.524;12.052;2023-08-17T11:40:14;8.50;;;5.88;;
58366;SDS011;57745;42.524;12.052;2023-08-17T11:42:40;7.95;;;6.32;;
58366;SDS011;57745;42.524;12.052;2023-08-17T11:45:07;7.20;;;6.50;;
58366;SDS011;57745;42.524;12.052;2023-08-17T11:47:39;7.18;;;6.35;;
58366;SDS011;57745;42.524;12.052;2023-08-17T11:50:07;6.47;;;5.88;;
58366;SDS011;57745;42.524;12.052;2023-08-17T11:52:34;7.38;;;6.03;;
58366;SDS011;57745;42.524;12.052;2023-08-17T11:55:03;7.07;;;6.38;;
58366;SDS011;57745;42.524;12.052;2023-08-17T11:57:35;6.43;;;5.82;;
58366;SDS011;57745;42.524;12.052;2023-08-17T12:00:02;6.72;;;6.03;;
58366;SDS011;57745;42.524;12.052;2023-08-17T12:02:31;6.82;;;6.10;;
58366;SDS011;57745;42.524;12.052;2023-08-17T12:04:58;6.20;;;5.53;;
58366;SDS011;57745;42.524;12.052;2023-08-17T12:07:28;8.18;;;5.72;;
58366;SDS011;57745;42.524;12.052;2023-08-17T12:09:54;6.97;;;6.35;;
58366;SDS011;57745;42.524;12.052;2023-08-17T12:12:21;7.85;;;5.50;;
58366;SDS011;57745;42.524;12.052;2023-08-17T12:14:47;6.07;;;5.57;;
58366;SDS011;57745;42.524;12.052;2023-08-17T12:17:17;8.23;;;5.78;;
58366;SDS011;57745;42.524;12.052;2023-08-17T12:19:43;6.65;;;5.70;;
58366;SDS011;57745;42.524;12.052;2023-08-17T12:22:10;6.97;;;6.03;;
58366;SDS011;57745;42.524;12.052;2023-08-17T12:24:37;6.55;;;5.38;;
58366;SDS011;57745;42.524;12.052;2023-08-17T12:27:04;6.72;;;6.13;;
58366;SDS011;57745;42.524;12.052;2023-08-17T12:29:30;7.45;;;5.95;;
58366;SDS011;57745;42.524;12.052;2023-08-17T12:32:02;5.82;;;5.05;;
58366;SDS011;57745;42.524;12.052;2023-08-17T12:34:27;5.70;;;5.28;;
58366;SDS011;57745;42.524;12.052;2023-08-17T12:36:53;5.88;;;5.10;;
58366;SDS011;57745;42.524;12.052;2023-08-17T12:39:18;5.18;;;4.60;;
58366;SDS011;57745;42.524;12.052;2023-08-17T12:41:44;5.78;;;4.60;;
58366;SDS011;57745;42.524;12.052;2023-08-17T12:44:09;4.85;;;4.38;;
58366;SDS011;57745;42.524;12.052;2023-08-17T12:46:41;5.32;;;4.78;;
58366;SDS011;57745;42.524;12.052;2023-08-17T12:49:07;6.25;;;4.32;;
58366;SDS011;57745;42.524;12.052;2023-08-17T12:51:33;5.20;;;4.70;;
58366;SDS011;57745;42.524;12.052;2023-08-17T12:53:58;5.25;;;4.72;;
58366;SDS011;57745;42.524;12.052;2023-08-17T12:56:24;5.65;;;4.78;;
58366;SDS011;57745;42.524;12.052;2023-08-17T12:58:49;6.40;;;4.93;;
58366;SDS011;57745;42.524;12.052;2023-08-17T13:01:15;7.35;;;5.45;;
58366;SDS011;57745;42.524;12.052;2023-08-17T13:03:40;5.80;;;4.88;;
58366;SDS011;57745;42.524;12.052;2023-08-17T13:06:06;5.63;;;4.70;;
58366;SDS011;57745;42.524;12.052;2023-08-17T13:08:32;5.85;;;4.85;;
58366;SDS011;57745;42.524;12.052;2023-08-17T13:10:58;6.00;;;4.68;;
58366;SDS011;57745;42.524;12.052;2023-08-17T13:13:25;5.45;;;4.90;;
58366;SDS011;57745;42.524;12.052;2023-08-17T13:15:50;5.53;;;5.00;;
58366;SDS011;57745;42.524;12.052;2023-08-17T13:18:16;5.18;;;4.68;;
58366;SDS011;57745;42.524;12.052;2023-08-17T13:20:41;6.28;;;4.53;;
58366;SDS011;57745;42.524;12.052;2023-08-17T13:23:07;6.40;;;4.88;;
58366;SDS011;57745;42.524;12.052;2023-08-17T13:25:32;6.20;;;5.10;;
58366;SDS011;57745;42.524;12.052;2023-08-17T13:27:58;5.43;;;4.85;;
58366;SDS011;57745;42.524;12.052;2023-08-17T13:30:23;5.40;;;4.90;;
58366;SDS011;57745;42.524;12.052;2023-08-17T13:32:50;6.03;;;5.45;;
58366;SDS011;57745;42.524;12.052;2023-08-17T13:35:15;5.80;;;5.30;;
58366;SDS011;57745;42.524;12.052;2023-08-17T13:37:41;6.43;;;5.18;;
58366;SDS011;57745;42.524;12.052;2023-08-17T13:40:07;5.82;;;5.32;;
58366;SDS011;57745;42.524;12.052;2023-08-17T13:42:33;5.40;;;4.75;;
58366;SDS011;57745;42.524;12.052;2023-08-17T13:44:59;6.03;;;5.40;;
58366;SDS011;57745;42.524;12.052;2023-08-17T13:47:25;6.05;;;5.18;;
58366;SDS011;57745;42.524;12.052;2023-08-17T13:49:50;9.07;;;5.28;;
58366;SDS011;57745;42.524;12.052;2023-08-17T13:52:16;7.63;;;5.25;;
58366;SDS011;57745;42.524;12.052;2023-08-17T13:54:41;5.45;;;4.97;;
58366;SDS011;57745;42.524;12.052;2023-08-17T13:57:07;5.28;;;4.57;;
58366;SDS011;57745;42.524;12.052;2023-08-17T13:59:32;4.47;;;4.07;;
58366;SDS011;57745;42.524;12.052;2023-08-17T14:01:58;7.65;;;4.32;;
58366;SDS011;57745;42.524;12.052;2023-08-17T14:04:23;6.10;;;3.92;;
58366;SDS011;57745;42.524;12.052;2023-08-17T14:06:49;6.43;;;4.05;;
58366;SDS011;57745;42.524;12.052;2023-08-17T14:09:16;3.35;;;3.00;;
58366;SDS011;57745;42.524;12.052;2023-08-17T14:11:41;5.88;;;3.53;;
58366;SDS011;57745;42.524;12.052;2023-08-17T14:14:07;4.00;;;3.50;;
58366;SDS011;57745;42.524;12.052;2023-08-17T14:16:32;3.92;;;3.05;;
58366;SDS011;57745;42.524;12.052;2023-08-17T14:18:58;5.97;;;3.63;;
58366;SDS011;57745;42.524;12.052;2023-08-17T14:21:23;5.00;;;3.83;;
58366;SDS011;57745;42.524;12.052;2023-08-17T14:23:49;6.00;;;3.45;;
58366;SDS011;57745;42.524;12.052;2023-08-17T14:26:14;4.80;;;3.15;;
58366;SDS011;57745;42.524;12.052;2023-08-17T14:28:40;3.85;;;3.55;;
58366;SDS011;57745;42.524;12.052;2023-08-17T14:31:05;6.13;;;3.50;;
58366;SDS011;57745;42.524;12.052;2023-08-17T14:33:31;3.83;;;3.28;;
58366;SDS011;57745;42.524;12.052;2023-08-17T14:35:56;5.32;;;3.20;;
58366;SDS011;57745;42.524;12.052;2023-08-17T14:38:22;4.72;;;3.10;;
58366;SDS011;57745;42.524;12.052;2023-08-17T14:40:47;5.20;;;3.20;;
58366;SDS011;57745;42.524;12.052;2023-08-17T14:43:14;7.00;;;3.47;;
58366;SDS011;57745;42.524;12.052;2023-08-17T14:45:40;4.45;;;3.08;;